Time;durP1;ratioP1;P1;durP2;ratioP2;P2;SDS_P1;SDS_P2;PMS_P1;PMS_P2;Temp;Humidity;BMP_temperature;BMP_pressure;BME280_temperature;BME280_humidity;BME280_pressure;Samples;Min_cycle;Max_cycle;Signal;HPM_P1;HPM_P2
2022/07/04 00:00:22;;;;;;;1.83;1.50;;;22.60;87.00;;;;;;4886575;29;20064;-84
2022/07/04 00:02:48;;;;;;;2.75;1.60;;;22.50;87.20;;;;;;4883405;29;20029;-83
2022/07/04 00:05:23;;;;;;;2.40;1.40;;;22.50;88.40;;;;;;4889245;29;20025;-83
2022/07/04 00:08:05;;;;;;;2.22;1.40;;;22.40;88.30;;;;;;4879923;29;20025;-84
2022/07/04 00:10:32;;;;;;;1.45;1.20;;;22.40;88.30;;;;;;4892715;29;20040;-83
2022/07/04 00:13:07;;;;;;;2.15;1.30;;;22.30;88.50;;;;;;4889824;29;20112;-83
2022/07/04 00:16:09;;;;;;;2.45;1.58;;;22.40;89.20;;;;;;4889196;29;20498;-84
2022/07/04 00:18:36;;;;;;;2.55;1.33;;;22.40;89.60;;;;;;4888254;29;20143;-86
2022/07/04 00:21:10;;;;;;;1.60;1.50;;;22.40;89.80;;;;;;4883618;29;20547;-84
2022/07/04 00:23:36;;;;;;;1.83;1.25;;;22.40;90.00;;;;;;4882355;29;20035;-86
2022/07/04 00:26:26;;;;;;;1.80;1.30;;;22.40;90.00;;;;;;4882137;29;20017;-84
2022/07/04 00:28:54;;;;;;;2.97;1.60;;;22.50;90.10;;;;;;4885039;29;20021;-85
2022/07/04 00:31:19;;;;;;;1.58;1.40;;;22.50;90.40;;;;;;4882421;29;20180;-85
2022/07/04 00:33:45;;;;;;;2.20;1.75;;;22.50;90.10;;;;;;4891385;29;20143;-85
2022/07/04 00:36:26;;;;;;;1.60;1.38;;;22.50;90.10;;;;;;4882773;29;20040;-85
2022/07/04 00:38:53;;;;;;;1.60;1.50;;;22.50;90.30;;;;;;4889579;29;20024;-85
2022/07/04 00:41:19;;;;;;;2.35;1.60;;;22.50;90.50;;;;;;4890743;29;20229;-86
2022/07/04 00:43:59;;;;;;;;;;;22.50;90.80;;;;;;4887339;29;20025;-86
2022/07/04 00:46:24;;;;;;;2.80;1.58;;;22.50;90.60;;;;;;4881572;29;19917;-86
2022/07/04 00:48:55;;;;;;;1.73;1.63;;;22.40;90.80;;;;;;4893420;29;20532;-85
2022/07/04 00:51:25;;;;;;;1.77;1.67;;;22.40;91.00;;;;;;4881206;29;20048;-85
2022/07/04 00:53:53;;;;;;;1.48;1.38;;;22.30;91.10;;;;;;4888064;29;20032;-85
2022/07/04 00:56:39;;;;;;;3.30;1.55;;;22.30;91.20;;;;;;4884926;29;20033;-84
2022/07/04 00:59:35;;;;;;;2.17;1.63;;;22.20;91.50;;;;;;4889801;29;20044;-85
2022/07/04 01:05:23;;;;;;;2.40;1.73;;;22.10;91.80;;;;;;4914521;29;20031;-80
2022/07/04 01:08:08;;;;;;;1.60;1.50;;;21.90;92.30;;;;;;4917135;29;20028;-82
2022/07/04 01:10:51;;;;;;;3.05;1.80;;;21.80;92.60;;;;;;4922844;29;20040;-81
2022/07/04 01:13:26;;;;;;;5.82;1.85;;;21.90;92.40;;;;;;4916836;29;20024;-80
2022/07/04 01:19:20;;;;;;;2.65;1.80;;;21.80;93.20;;;;;;4911309;29;20028;-81
2022/07/04 01:22:06;;;;;;;1.73;1.63;;;21.70;93.40;;;;;;4918949;29;20040;-81
2022/07/04 01:24:41;;;;;;;2.58;1.77;;;21.70;93.50;;;;;;4918501;29;20040;-81
2022/07/04 01:27:56;;;;;;;2.10;1.90;;;21.60;93.60;;;;;;4915892;29;20036;-81
2022/07/04 01:30:28;;;;;;;2.55;1.70;;;21.60;93.80;;;;;;4910316;29;20025;-81
2022/07/04 01:33:04;;;;;;;3.17;1.60;;;21.60;93.70;;;;;;4920026;29;20032;-81
2022/07/04 01:35:42;;;;;;;3.75;2.10;;;21.50;93.80;;;;;;4926125;29;20084;-81
2022/07/04 01:38:47;;;;;;;2.92;1.90;;;21.50;93.90;;;;;;4924516;29;20663;-81
2022/07/04 01:44:35;;;;;;;5.63;1.83;;;21.40;94.50;;;;;;4927827;29;20039;-81
2022/07/04 01:47:29;;;;;;;2.95;1.80;;;21.30;94.80;;;;;;4926541;29;20016;-81
2022/07/04 01:50:24;;;;;;;2.17;1.60;;;21.30;95.00;;;;;;4927057;29;20033;-81
2022/07/04 01:58:01;;;;;;;2.25;1.70;;;21.20;95.40;;;;;;5834402;23;20055;-82
2022/07/04 02:03:27;;;;;;;1.77;1.67;;;21.20;95.60;;;;;;4932769;29;20056;-81
2022/07/04 02:06:07;;;;;;;;;;;21.20;95.60;;;;;;4922737;29;20052;-82
2022/07/04 02:09:16;;;;;;;2.00;1.80;;;21.20;95.70;;;;;;4930788;29;19895;-82
2022/07/04 02:14:48;;;;;;;3.55;2.17;;;21.10;95.90;;;;;;4935416;29;20035;-82
2022/07/04 02:17:30;;;;;;;2.42;1.88;;;21.10;96.10;;;;;;4918763;29;20088;-81
2022/07/04 02:19:59;;;;;;;2.45;2.25;;;21.30;96.30;;;;;;4918648;29;20042;-81
2022/07/04 02:22:51;;;;;;;2.65;2.20;;;21.10;96.40;;;;;;4922944;29;20075;-83
2022/07/04 02:25:32;;;;;;;3.33;2.38;;;21.10;96.50;;;;;;4930345;29;20028;-83
2022/07/04 04:10:09;;;;;;;2.90;2.30;;;22.00;99.70;;;;;;5119676;23;20103;-82
2022/07/04 05:01:02;;;;;;;2.42;2.22;;;23.80;97.50;;;;;;3038258;23;20056;-74
2022/07/04 05:03:29;;;;;;;2.70;2.50;;;24.00;97.50;;;;;;4897001;29;20024;-76
2022/07/04 05:05:56;;;;;;;2.55;2.30;;;24.20;98.60;;;;;;4900804;29;20020;-76
2022/07/04 05:08:24;;;;;;;3.00;2.50;;;24.20;99.90;;;;;;4879998;29;20478;-76
2022/07/04 05:10:52;;;;;;;3.13;2.00;;;24.30;98.30;;;;;;4900529;29;20023;-77
2022/07/04 05:13:18;;;;;;;3.60;2.10;;;24.40;97.80;;;;;;4894819;29;20040;-77
2022/07/04 05:15:44;;;;;;;3.85;2.70;;;24.60;97.40;;;;;;4900592;29;20036;-76
2022/07/04 05:18:10;;;;;;;3.08;2.72;;;24.70;97.10;;;;;;4903129;29;20715;-76
2022/07/04 05:20:37;;;;;;;;;;;24.80;96.40;;;;;;4881827;29;21197;-75
2022/07/04 05:23:06;;;;;;;3.35;2.45;;;24.60;95.80;;;;;;4886630;29;20059;-75
2022/07/04 05:25:32;;;;;;;4.88;2.80;;;24.60;96.20;;;;;;4897559;29;20489;-76
2022/07/04 05:27:59;;;;;;;3.30;2.67;;;24.80;95.50;;;;;;4903223;29;20031;-75
2022/07/04 05:30:25;;;;;;;3.13;2.38;;;25.00;95.40;;;;;;4898535;29;20032;-76
2022/07/04 05:32:53;;;;;;;3.00;2.65;;;25.20;95.20;;;;;;4903196;29;20043;-75
2022/07/04 05:35:19;;;;;;;5.00;3.20;;;25.50;94.70;;;;;;4878925;29;20039;-75
2022/07/04 05:37:45;;;;;;;3.53;2.45;;;25.70;94.00;;;;;;4904919;29;20099;-78
2022/07/04 05:40:11;;;;;;;;;;;25.70;93.20;;;;;;4898631;29;20068;-78
2022/07/04 05:42:43;;;;;;;4.95;2.88;;;25.80;92.40;;;;;;4899332;29;19919;-78
2022/07/04 05:45:10;;;;;;;7.28;3.00;;;25.60;92.70;;;;;;4902911;29;20485;-76
2022/07/04 05:47:43;;;;;;;3.70;2.70;;;25.50;93.20;;;;;;4894929;29;20028;-78
2022/07/04 05:50:09;;;;;;;5.07;2.97;;;25.50;93.10;;;;;;4900758;29;20031;-78
2022/07/04 05:52:35;;;;;;;;;;;25.50;93.00;;;;;;4899055;29;20036;-76
2022/07/04 05:55:02;;;;;;;3.15;2.85;;;25.50;92.50;;;;;;4902792;29;20482;-76
2022/07/04 05:57:27;;;;;;;3.38;2.90;;;25.70;92.20;;;;;;4881901;29;20164;-76
2022/07/04 06:00:02;;;;;;;;;;;26.00;92.20;;;;;;4902282;29;20119;-76
2022/07/04 06:02:29;;;;;;;6.43;2.78;;;26.20;91.30;;;;;;4898276;29;19915;-76
2022/07/04 06:04:56;;;;;;;2.63;2.42;;;26.10;91.20;;;;;;4902566;29;20457;-76
2022/07/04 06:07:30;;;;;;;4.35;2.92;;;26.10;91.30;;;;;;4900059;29;20690;-76
2022/07/04 06:09:56;;;;;;;4.05;2.85;;;26.50;90.40;;;;;;4899653;29;20076;-76
2022/07/04 06:12:25;;;;;;;5.47;3.33;;;26.70;90.00;;;;;;4900268;29;20446;-76
2022/07/04 06:14:54;;;;;;;3.50;2.97;;;26.90;88.00;;;;;;4902631;29;20108;-76
2022/07/04 06:17:21;;;;;;;3.90;2.75;;;27.00;88.40;;;;;;4896474;29;20021;-76
2022/07/04 06:19:46;;;;;;;5.25;2.72;;;27.60;86.80;;;;;;4901355;29;20025;-75
2022/07/04 06:22:12;;;;;;;4.88;3.03;;;27.60;85.50;;;;;;4900330;29;20028;-77
2022/07/04 06:24:40;;;;;;;4.30;3.03;;;27.60;84.80;;;;;;4893300;29;20031;-76
2022/07/04 06:27:05;;;;;;;5.25;2.53;;;27.40;85.60;;;;;;4900470;29;20066;-77
2022/07/04 06:29:31;;;;;;;;;;;27.00;87.00;;;;;;4896484;29;20047;-76
2022/07/04 06:32:03;;;;;;;5.68;2.92;;;26.90;85.50;;;;;;4883317;29;20352;-76
2022/07/04 06:37:22;;;;;;;4.88;2.00;;;27.30;86.50;;;;;;4901782;29;20131;-78
2022/07/04 06:39:53;;;;;;;4.85;2.10;;;27.90;87.50;;;;;;4895286;29;20080;-78
2022/07/04 06:42:21;;;;;;;3.85;2.40;;;28.50;86.80;;;;;;4886606;29;20545;-78
2022/07/04 06:44:47;;;;;;;5.57;3.42;;;28.70;85.40;;;;;;4883077;29;20024;-77
2022/07/04 06:47:13;;;;;;;5.45;3.50;;;28.40;83.60;;;;;;4902886;29;20020;-77
2022/07/04 06:49:39;;;;;;;3.25;2.50;;;28.00;83.80;;;;;;4896471;29;20047;-77
2022/07/04 06:52:07;;;;;;;;;;;28.00;84.30;;;;;;4905808;29;20478;-78
2022/07/04 06:54:36;;;;;;;2.65;2.30;;;28.50;82.80;;;;;;4901573;29;20413;-77
2022/07/04 06:57:03;;;;;;;2.50;2.30;;;28.80;80.70;;;;;;4888617;29;20020;-77
2022/07/04 06:59:28;;;;;;;2.35;2.17;;;29.00;80.10;;;;;;4897799;29;20191;-78
2022/07/04 07:02:01;;;;;;;5.22;2.70;;;29.10;79.50;;;;;;4888070;29;20115;-77
2022/07/04 07:04:28;;;;;;;2.50;2.30;;;29.10;78.70;;;;;;4900053;29;20035;-77
2022/07/04 07:06:59;;;;;;;2.90;2.28;;;28.90;79.00;;;;;;4905008;29;20031;-77
2022/07/04 07:09:27;;;;;;;3.80;3.22;;;28.60;79.50;;;;;;4895380;29;20045;-77
2022/07/04 07:11:54;;;;;;;2.55;2.05;;;28.40;80.20;;;;;;4888522;29;20032;-78
2022/07/04 07:14:21;;;;;;;3.13;2.00;;;28.50;80.30;;;;;;4900887;29;20482;-78
2022/07/04 07:16:48;;;;;;;4.78;2.10;;;28.80;80.20;;;;;;4902956;29;20028;-78
2022/07/04 07:19:14;;;;;;;2.97;1.85;;;28.90;79.30;;;;;;4902347;29;20035;-76
2022/07/04 07:21:42;;;;;;;4.30;2.28;;;28.80;79.90;;;;;;4898243;29;20052;-78
2022/07/04 07:24:11;;;;;;;8.25;2.13;;;28.60;80.40;;;;;;4905443;29;20174;-78
2022/07/04 07:26:37;;;;;;;4.90;1.98;;;28.40;81.00;;;;;;4883860;29;20243;-76
2022/07/04 07:29:05;;;;;;;;;;;28.40;81.00;;;;;;4888405;29;20103;-77
2022/07/04 07:31:34;;;;;;;3.05;2.15;;;28.20;81.20;;;;;;4883764;29;19934;-75
2022/07/04 07:34:09;;;;;;;3.08;1.90;;;28.30;80.60;;;;;;4905361;29;20406;-76
2022/07/04 07:36:35;;;;;;;2.25;1.83;;;28.50;80.30;;;;;;4884302;29;20048;-76
2022/07/04 07:39:04;;;;;;;1.63;1.50;;;29.10;78.40;;;;;;4889892;29;20083;-78
2022/07/04 07:41:31;;;;;;;1.77;1.63;;;29.50;76.80;;;;;;4902491;29;20028;-79
2022/07/04 07:43:59;;;;;;;2.42;1.67;;;29.50;76.40;;;;;;4905099;29;20500;-75
2022/07/04 07:46:25;;;;;;;5.40;1.58;;;29.00;76.60;;;;;;4885391;29;20127;-75
2022/07/04 07:48:54;;;;;;;2.58;1.40;;;28.60;77.10;;;;;;4904468;29;20448;-75
2022/07/04 07:51:23;;;;;;;2.60;1.38;;;28.20;77.60;;;;;;4901857;29;20478;-75
2022/07/04 07:53:51;;;;;;;1.45;1.10;;;28.00;78.10;;;;;;4901134;29;20410;-76
2022/07/04 07:56:19;;;;;;;1.30;1.20;;;27.80;77.70;;;;;;4888499;29;20075;-76
2022/07/04 07:58:46;;;;;;;1.75;1.38;;;27.70;77.90;;;;;;4898229;29;20079;-77
2022/07/04 08:01:13;;;;;;;4.15;1.35;;;27.90;77.60;;;;;;4886810;29;20775;-76
2022/07/04 08:06:27;;;;;;;4.97;1.38;;;29.70;74.00;;;;;;4898007;29;20401;-78
2022/07/04 08:08:53;;;;;;;2.88;1.17;;;30.70;71.30;;;;;;4889014;29;20024;-78
2022/07/04 08:11:19;;;;;;;1.48;1.38;;;32.00;69.50;;;;;;4885192;29;20021;-76
2022/07/04 08:13:45;;;;;;;1.17;0.90;;;33.40;66.00;;;;;;4897014;29;20012;-76
2022/07/04 08:16:11;;;;;;;2.45;1.10;;;34.80;63.60;;;;;;4882593;29;20020;-76
2022/07/04 08:18:43;;;;;;;2.35;1.10;;;36.20;61.30;;;;;;4886705;29;20039;-76
2022/07/04 08:21:10;;;;;;;1.88;1.20;;;37.20;59.40;;;;;;4896193;29;20024;-76
2022/07/04 08:23:37;;;;;;;1.23;0.90;;;37.60;56.10;;;;;;4887394;29;21518;-76
2022/07/04 08:26:10;;;;;;;1.23;1.10;;;37.00;56.00;;;;;;4880089;29;20358;-76
2022/07/04 08:28:40;;;;;;;1.65;1.33;;;36.40;56.10;;;;;;4885806;29;20111;-75
2022/07/04 08:31:07;;;;;;;1.20;1.10;;;36.70;56.60;;;;;;4882712;29;20110;-75
2022/07/04 08:33:36;;;;;;;1.38;1.13;;;37.00;55.80;;;;;;4887265;29;20443;-75
2022/07/04 08:36:05;;;;;;;1.40;0.98;;;36.70;55.50;;;;;;4886306;29;20080;-75
2022/07/04 08:38:30;;;;;;;1.23;1.13;;;36.00;54.80;;;;;;4889201;29;20084;-75
2022/07/04 08:40:58;;;;;;;1.52;1.20;;;35.10;56.20;;;;;;4903924;29;20032;-75
2022/07/04 08:43:33;;;;;;;1.70;1.13;;;34.20;57.80;;;;;;4903956;29;20039;-77
2022/07/04 08:46:00;;;;;;;1.10;1.10;;;33.10;58.80;;;;;;4896635;29;20020;-77
2022/07/04 08:48:26;;;;;;;1.27;1.17;;;32.20;60.80;;;;;;4884523;29;20028;-77
2022/07/04 08:51:00;;;;;;;3.25;1.17;;;31.50;62.20;;;;;;4902720;29;20095;-77
2022/07/04 08:53:30;;;;;;;1.10;1.00;;;31.10;63.10;;;;;;4903659;29;20028;-78
2022/07/04 08:58:45;;;;;;;1.55;1.40;;;30.90;64.00;;;;;;4903886;29;20031;-77
2022/07/04 09:01:14;;;;;;;1.42;1.30;;;30.60;64.40;;;;;;4898537;29;20035;-77
2022/07/04 09:03:45;;;;;;;2.03;1.10;;;30.50;64.90;;;;;;4899578;29;20374;-77
2022/07/04 09:06:13;;;;;;;3.92;1.27;;;30.40;65.40;;;;;;4899427;29;20024;-77
2022/07/04 09:08:40;;;;;;;1.35;1.25;;;30.10;65.90;;;;;;4902673;29;20034;-77
2022/07/04 09:11:08;;;;;;;1.58;1.10;;;29.80;66.70;;;;;;4900805;29;20095;-77
2022/07/04 09:13:35;;;;;;;1.40;1.30;;;29.30;67.40;;;;;;4886378;29;20028;-77
2022/07/04 09:16:02;;;;;;;3.28;1.20;;;29.00;68.40;;;;;;4902339;29;20024;-77
2022/07/04 09:18:35;;;;;;;1.95;1.33;;;28.60;69.00;;;;;;4882571;29;20381;-77
2022/07/04 09:21:05;;;;;;;4.07;1.73;;;28.40;69.80;;;;;;4899962;29;20571;-77
2022/07/04 09:23:38;;;;;;;1.80;1.35;;;28.10;70.00;;;;;;4903249;29;20445;-77
2022/07/04 09:26:29;;;;;;;2.22;1.25;;;27.80;70.60;;;;;;4899023;29;20027;-77
2022/07/04 09:28:57;;;;;;;1.40;1.27;;;27.60;71.30;;;;;;4902896;29;20031;-77
2022/07/04 09:31:31;;;;;;;2.00;1.25;;;27.40;71.70;;;;;;4898481;29;20103;-77
2022/07/04 09:34:05;;;;;;;1.50;1.33;;;27.20;72.30;;;;;;4886321;29;20028;-77
2022/07/04 09:36:52;;;;;;;2.17;1.40;;;27.00;72.50;;;;;;4902891;29;20060;-77
2022/07/04 09:39:21;;;;;;;1.20;1.10;;;26.90;73.00;;;;;;4882887;29;20039;-77
2022/07/04 09:41:56;;;;;;;3.00;1.33;;;26.80;72.80;;;;;;4901479;29;20028;-76
2022/07/04 09:44:25;;;;;;;1.85;1.20;;;26.80;73.20;;;;;;4896214;29;20110;-77
2022/07/04 09:46:55;;;;;;;1.52;1.42;;;26.80;73.50;;;;;;4885672;29;20120;-77
2022/07/04 09:49:25;;;;;;;1.38;1.27;;;26.90;73.70;;;;;;4898573;29;20525;-77
2022/07/04 09:51:54;;;;;;;1.88;1.30;;;26.80;74.10;;;;;;4901931;29;20621;-77
2022/07/04 09:54:31;;;;;;;3.50;1.42;;;26.50;76.40;;;;;;4879069;29;20028;-77
2022/07/04 09:57:00;;;;;;;2.00;1.50;;;26.60;75.20;;;;;;4892201;29;20028;-77
2022/07/04 09:59:28;;;;;;;1.88;1.50;;;26.60;75.40;;;;;;4881254;29;20079;-77
2022/07/04 10:02:11;;;;;;;1.70;1.48;;;26.20;77.60;;;;;;4901950;29;20020;-77
2022/07/04 10:04:47;;;;;;;1.38;1.20;;;26.20;77.90;;;;;;4899026;29;20051;-78
2022/07/04 10:07:35;;;;;;;1.13;1.02;;;26.50;77.10;;;;;;4897216;29;20658;-77
2022/07/04 10:10:30;;;;;;;3.13;1.30;;;26.30;77.70;;;;;;4878491;29;20123;-77
2022/07/04 10:13:09;;;;;;;1.65;1.45;;;26.10;77.80;;;;;;4900797;29;20024;-77
2022/07/04 10:15:41;;;;;;;3.33;1.63;;;26.20;78.20;;;;;;4902542;29;20036;-77
2022/07/04 10:18:08;;;;;;;3.10;1.35;;;26.10;78.30;;;;;;4881081;29;21660;-76
2022/07/04 10:20:35;;;;;;;2.15;1.55;;;26.20;78.50;;;;;;4884563;29;20039;-78
2022/07/04 10:23:03;;;;;;;1.85;1.38;;;26.30;77.90;;;;;;4885311;29;20347;-77
2022/07/04 10:25:30;;;;;;;1.77;1.42;;;26.60;77.50;;;;;;4902477;29;20031;-77
2022/07/04 10:27:57;;;;;;;2.50;1.40;;;27.00;75.50;;;;;;4902585;29;20104;-77
2022/07/04 10:30:27;;;;;;;2.83;1.65;;;27.20;75.20;;;;;;4894220;29;20032;-77
2022/07/04 10:32:57;;;;;;;1.17;1.17;;;27.60;74.00;;;;;;4902041;29;20083;-77
2022/07/04 10:36:04;;;;;;;1.52;1.20;;;28.50;72.30;;;;;;4897948;29;20502;-78
2022/07/04 10:38:59;;;;;;;1.40;1.30;;;29.90;69.60;;;;;;4887823;29;20059;-78
2022/07/04 10:41:26;;;;;;;2.50;1.60;;;30.70;68.00;;;;;;4896548;29;20079;-77
2022/07/04 10:44:07;;;;;;;1.50;1.40;;;31.30;67.30;;;;;;4882463;29;20021;-77
2022/07/04 10:46:46;;;;;;;3.60;1.70;;;31.80;66.40;;;;;;4884996;29;20699;-77
2022/07/04 10:49:19;;;;;;;1.98;1.20;;;33.00;63.30;;;;;;4894650;29;20156;-75
2022/07/04 10:52:01;;;;;;;2.10;1.95;;;35.80;60.40;;;;;;4899649;29;20025;-75
2022/07/04 10:54:34;;;;;;;2.35;1.60;;;38.10;56.40;;;;;;4892669;29;20025;-76
2022/07/04 10:57:23;;;;;;;1.40;1.30;;;38.40;55.00;;;;;;4901842;29;20088;-75
2022/07/04 11:00:04;;;;;;;4.07;2.33;;;38.50;54.20;;;;;;4898431;29;20027;-75
2022/07/04 11:02:32;;;;;;;1.70;1.60;;;38.50;53.50;;;;;;4900800;29;20028;-75
2022/07/04 11:05:18;;;;;;;2.05;1.42;;;37.60;54.40;;;;;;4900442;29;20024;-75
2022/07/04 11:07:45;;;;;;;1.65;1.45;;;36.80;54.60;;;;;;4900679;29;20012;-76
2022/07/04 11:12:59;;;;;;;2.50;1.73;;;35.60;55.90;;;;;;4898643;29;20028;-75
2022/07/04 11:15:27;;;;;;;2.17;1.55;;;35.20;56.30;;;;;;4878549;29;20873;-75
2022/07/04 11:18:03;;;;;;;1.30;1.30;;;34.70;57.30;;;;;;4883845;29;20036;-75
2022/07/04 11:20:31;;;;;;;1.70;1.60;;;34.30;58.20;;;;;;4879648;29;20028;-75
2022/07/04 11:23:09;;;;;;;1.65;1.50;;;34.20;59.30;;;;;;4901570;29;20020;-76
2022/07/04 11:25:37;;;;;;;2.50;1.30;;;34.20;59.30;;;;;;4884529;29;20024;-75
2022/07/04 11:28:21;;;;;;;2.05;1.65;;;34.30;58.50;;;;;;4881718;29;20027;-76
2022/07/04 11:30:55;;;;;;;1.60;1.50;;;34.60;58.80;;;;;;4881251;29;20020;-75
2022/07/04 11:33:24;;;;;;;2.55;1.50;;;34.70;58.70;;;;;;4877764;29;20370;-75
2022/07/04 11:36:07;;;;;;;2.40;2.00;;;34.60;59.00;;;;;;4886280;29;20031;-75
2022/07/04 11:38:55;;;;;;;2.60;1.58;;;34.50;59.20;;;;;;4888209;29;20384;-75
2022/07/04 11:47:22;;;;;;;1.60;1.50;;;34.00;59.50;;;;;;4897803;29;20031;-75
2022/07/04 11:50:09;;;;;;;3.10;1.50;;;33.70;58.50;;;;;;4895249;29;20028;-75
2022/07/04 11:52:42;;;;;;;1.77;1.67;;;33.50;59.20;;;;;;4891254;29;20024;-76
2022/07/04 11:55:14;;;;;;;1.90;1.48;;;33.50;59.80;;;;;;4903033;29;20080;-76
2022/07/04 11:57:45;;;;;;;3.88;1.65;;;33.40;60.00;;;;;;4887764;29;20024;-75
2022/07/04 12:00:16;;;;;;;1.90;1.70;;;33.30;60.60;;;;;;4882770;29;20527;-76
2022/07/04 12:02:47;;;;;;;2.25;1.58;;;33.20;60.70;;;;;;4886396;29;20087;-75
2022/07/04 12:05:14;;;;;;;2.30;1.42;;;32.90;61.40;;;;;;4899550;29;20023;-77
2022/07/04 12:07:47;;;;;;;1.83;1.52;;;32.90;61.80;;;;;;4887992;29;20023;-76
2022/07/04 12:10:18;;;;;;;3.25;1.60;;;32.70;61.40;;;;;;4883663;29;20033;-76
2022/07/04 12:12:55;;;;;;;1.70;1.60;;;32.80;61.60;;;;;;4884524;29;20031;-76
2022/07/04 12:15:39;;;;;;;1.75;1.65;;;32.50;61.60;;;;;;4883005;29;20024;-76
2022/07/04 12:18:31;;;;;;;1.75;1.60;;;32.50;61.60;;;;;;4884744;29;20678;-77
2022/07/04 12:21:22;;;;;;;3.28;1.60;;;32.40;62.00;;;;;;4883513;29;20489;-77
2022/07/04 12:23:57;;;;;;;1.73;1.63;;;32.10;62.60;;;;;;4883035;29;20032;-76
2022/07/04 12:26:27;;;;;;;1.75;1.45;;;32.30;62.20;;;;;;4882310;29;20419;-76
2022/07/04 12:28:54;;;;;;;1.67;1.50;;;32.40;61.90;;;;;;4886763;29;20020;-76
2022/07/04 12:31:39;;;;;;;1.50;1.40;;;32.30;60.10;;;;;;4899433;29;20047;-76
2022/07/04 12:34:19;;;;;;;4.32;1.48;;;32.20;60.60;;;;;;4887144;29;20035;-76
2022/07/04 12:36:49;;;;;;;1.35;1.25;;;32.30;60.80;;;;;;4884029;29;20120;-76
2022/07/04 12:39:31;;;;;;;2.15;1.58;;;32.40;61.00;;;;;;4902041;29;20024;-76
2022/07/04 12:42:21;;;;;;;1.60;1.50;;;32.50;59.50;;;;;;4905261;29;20111;-76
2022/07/04 12:44:49;;;;;;;1.70;1.50;;;32.50;59.40;;;;;;4880853;29;20052;-76
2022/07/04 12:47:15;;;;;;;1.58;1.48;;;32.50;60.30;;;;;;4899900;29;20493;-76
2022/07/04 12:49:46;;;;;;;1.52;1.20;;;32.60;60.50;;;;;;4886035;29;20532;-75
2022/07/04 12:52:16;;;;;;;1.80;1.52;;;32.50;58.90;;;;;;4900625;29;20035;-76
2022/07/04 12:54:46;;;;;;;1.30;1.20;;;32.70;57.80;;;;;;4903586;29;20655;-77
2022/07/04 12:57:18;;;;;;;1.88;1.40;;;32.90;58.20;;;;;;4883913;29;20111;-76
2022/07/04 12:59:44;;;;;;;2.15;1.67;;;33.00;57.90;;;;;;4886897;29;20115;-75
2022/07/04 13:02:11;;;;;;;2.25;1.52;;;33.20;58.80;;;;;;4903063;29;20031;-75
2022/07/04 13:04:40;;;;;;;1.30;1.20;;;33.40;58.10;;;;;;4881901;29;20966;-75
2022/07/04 13:07:17;;;;;;;1.73;1.30;;;33.60;58.50;;;;;;4903805;29;20059;-74
2022/07/04 13:09:44;;;;;;;1.55;1.45;;;33.70;58.10;;;;;;4881893;29;20031;-74
2022/07/04 13:12:25;;;;;;;1.70;1.40;;;33.80;58.40;;;;;;4886259;29;20070;-74
2022/07/04 13:14:58;;;;;;;3.95;1.60;;;33.70;58.20;;;;;;4882066;29;20485;-75
2022/07/04 13:17:28;;;;;;;3.05;1.40;;;33.60;58.40;;;;;;4886271;29;20046;-75
2022/07/04 13:19:53;;;;;;;3.20;1.40;;;33.70;58.80;;;;;;4881889;29;20496;-75
2022/07/04 13:22:23;;;;;;;3.20;1.58;;;33.70;58.80;;;;;;4902830;29;20032;-74
2022/07/04 13:24:50;;;;;;;1.92;1.38;;;33.50;57.90;;;;;;4898940;29;20220;-74
2022/07/04 13:27:17;;;;;;;1.77;1.67;;;33.40;58.50;;;;;;4885776;29;20024;-74
2022/07/04 13:29:44;;;;;;;2.35;1.92;;;33.20;58.80;;;;;;4895471;29;20503;-75
2022/07/04 13:32:11;;;;;;;1.80;1.67;;;33.10;59.80;;;;;;4901494;29;20028;-74
2022/07/04 13:34:36;;;;;;;2.40;1.52;;;33.00;60.40;;;;;;4878470;29;20032;-74
2022/07/04 13:37:03;;;;;;;2.08;1.55;;;32.80;59.40;;;;;;4883975;29;20675;-76
2022/07/04 13:39:30;;;;;;;1.83;1.73;;;32.60;60.40;;;;;;4886583;29;20024;-75
2022/07/04 13:41:56;;;;;;;2.45;1.70;;;32.60;60.50;;;;;;4886684;29;20028;-74
2022/07/04 13:44:22;;;;;;;2.30;1.77;;;32.20;60.80;;;;;;4902707;29;20021;-75
2022/07/04 13:46:51;;;;;;;1.55;1.45;;;32.20;60.80;;;;;;4895557;29;20024;-75
2022/07/04 13:49:22;;;;;;;1.52;1.42;;;32.40;61.50;;;;;;4885719;29;20072;-74
2022/07/04 13:51:48;;;;;;;1.52;1.42;;;32.40;61.50;;;;;;4895004;29;20032;-74
2022/07/04 13:54:15;;;;;;;1.77;1.40;;;32.40;60.90;;;;;;4903288;29;20478;-75
2022/07/04 13:56:42;;;;;;;4.40;1.60;;;32.40;60.90;;;;;;4894808;29;20024;-75
2022/07/04 13:59:08;;;;;;;1.50;1.40;;;32.40;60.20;;;;;;4901752;29;20114;-75
2022/07/04 14:01:39;;;;;;;2.35;1.55;;;32.20;60.60;;;;;;4881027;29;20434;-75
2022/07/04 14:04:06;;;;;;;1.50;1.40;;;32.30;60.50;;;;;;4884836;29;20028;-75
2022/07/04 14:06:40;;;;;;;2.15;1.80;;;32.40;59.70;;;;;;4881409;29;20557;-75
2022/07/04 14:09:08;;;;;;;3.58;2.15;;;32.60;59.10;;;;;;4901245;29;20032;-75
2022/07/04 14:11:35;;;;;;;1.85;1.48;;;32.60;58.80;;;;;;4879670;29;20131;-75
2022/07/04 14:14:01;;;;;;;1.40;1.27;;;32.30;59.30;;;;;;4902086;29;20031;-66
2022/07/04 14:16:28;;;;;;;3.08;1.52;;;31.80;60.20;;;;;;4900044;29;20874;-71
2022/07/04 14:18:54;;;;;;;2.75;1.40;;;31.90;60.20;;;;;;4897829;29;20119;-71
2022/07/04 14:21:20;;;;;;;1.88;1.50;;;32.20;61.30;;;;;;4899152;29;20031;-71
2022/07/04 14:23:46;;;;;;;1.70;1.60;;;32.30;60.50;;;;;;4881690;29;20020;-71
2022/07/04 14:26:14;;;;;;;1.30;1.30;;;32.30;60.10;;;;;;4900274;29;20473;-70
2022/07/04 14:28:41;;;;;;;1.42;1.33;;;32.20;60.70;;;;;;4895953;29;20021;-71
2022/07/04 14:31:08;;;;;;;2.65;1.48;;;32.20;60.60;;;;;;4879857;29;20594;-71
2022/07/04 14:33:33;;;;;;;1.48;1.38;;;32.30;60.80;;;;;;4895428;29;20119;-71
2022/07/04 14:36:00;;;;;;;1.60;1.50;;;32.20;61.40;;;;;;4883175;29;20858;-71
2022/07/04 14:38:26;;;;;;;1.50;1.40;;;32.20;61.80;;;;;;4902379;29;20028;-71
2022/07/04 14:40:52;;;;;;;1.77;1.67;;;32.30;62.00;;;;;;4898013;29;20054;-71
2022/07/04 14:43:17;;;;;;;1.40;1.30;;;32.40;62.10;;;;;;4900537;29;20477;-73
2022/07/04 14:45:44;;;;;;;3.60;1.80;;;32.40;61.10;;;;;;4881696;29;20703;-73
2022/07/04 14:48:10;;;;;;;1.92;1.70;;;32.20;61.40;;;;;;4899856;29;20020;-72
2022/07/04 14:50:36;;;;;;;1.85;1.38;;;32.00;62.10;;;;;;4875612;29;20037;-73
2022/07/04 14:53:01;;;;;;;1.63;1.38;;;32.10;62.60;;;;;;4900470;29;20024;-73
2022/07/04 14:55:27;;;;;;;2.40;1.40;;;32.20;62.40;;;;;;4883138;29;20047;-73
2022/07/04 14:57:53;;;;;;;1.70;1.60;;;32.20;62.50;;;;;;4896392;29;20024;-73
2022/07/04 15:00:18;;;;;;;1.80;1.60;;;32.10;62.60;;;;;;4898075;29;20064;-73
2022/07/04 15:02:46;;;;;;;2.63;1.40;;;32.10;62.90;;;;;;4896072;29;20047;-73
2022/07/04 15:05:12;;;;;;;2.03;1.40;;;32.00;63.10;;;;;;4898723;29;20024;-73
2022/07/04 15:07:39;;;;;;;2.22;1.30;;;32.00;63.40;;;;;;4899594;29;20186;-73
2022/07/04 15:10:07;;;;;;;1.75;1.65;;;31.90;63.70;;;;;;4897977;29;20051;-73
2022/07/04 15:12:33;;;;;;;2.20;2.00;;;31.80;63.90;;;;;;4882951;29;20028;-73
2022/07/04 15:14:59;;;;;;;2.20;1.73;;;31.70;64.90;;;;;;4903259;29;20036;-73
2022/07/04 15:17:25;;;;;;;3.20;1.50;;;31.50;63.60;;;;;;4902694;29;20402;-72
2022/07/04 15:25:19;;;;;;;1.85;1.60;;;31.00;64.60;;;;;;4900081;29;20083;-73
2022/07/04 15:27:45;;;;;;;3.33;2.17;;;30.90;64.70;;;;;;4896697;29;20028;-73
2022/07/04 15:30:11;;;;;;;3.47;1.95;;;30.80;64.50;;;;;;4885518;29;20032;-73
2022/07/04 15:32:36;;;;;;;1.98;1.30;;;30.70;64.80;;;;;;4899384;29;20749;-72
2022/07/04 15:35:02;;;;;;;3.15;1.45;;;30.60;64.70;;;;;;4886001;29;20139;-73
2022/07/04 15:37:28;;;;;;;1.48;1.10;;;30.50;64.80;;;;;;4887769;29;20361;-73
2022/07/04 15:39:54;;;;;;;1.40;1.13;;;30.30;64.80;;;;;;4878945;29;20024;-73
2022/07/04 15:42:20;;;;;;;1.65;1.00;;;30.20;65.10;;;;;;4902933;29;20024;-73
2022/07/04 15:44:46;;;;;;;1.23;1.13;;;30.10;65.20;;;;;;4886102;29;20041;-73
2022/07/04 15:47:11;;;;;;;1.10;0.95;;;30.00;65.50;;;;;;4898503;29;20702;-73
2022/07/04 15:49:38;;;;;;;1.20;1.10;;;29.90;65.90;;;;;;4900849;29;20040;-73
2022/07/04 15:52:05;;;;;;;1.92;1.30;;;29.70;66.40;;;;;;4880618;29;20020;-73
2022/07/04 15:54:31;;;;;;;1.85;0.90;;;29.60;66.60;;;;;;4898432;29;20033;-73
2022/07/04 15:57:01;;;;;;;1.92;1.02;;;29.60;67.10;;;;;;4884281;29;20668;-86
2022/07/04 15:59:28;;;;;;;1.58;1.10;;;29.40;67.50;;;;;;4884729;29;20032;-75
2022/07/04 16:01:54;;;;;;;1.15;1.05;;;29.30;67.90;;;;;;4898620;29;20087;-77
2022/07/04 16:04:21;;;;;;;1.23;1.17;;;29.20;69.80;;;;;;4898557;29;20477;-75
2022/07/04 16:06:53;;;;;;;2.45;1.27;;;29.00;70.10;;;;;;4902803;29;20023;-80
2022/07/04 16:09:22;;;;;;;1.20;1.10;;;28.80;70.20;;;;;;4884848;29;20023;-79
2022/07/04 16:11:50;;;;;;;1.17;1.08;;;28.70;71.10;;;;;;4886829;29;20033;-78
2022/07/04 16:14:20;;;;;;;1.40;1.30;;;28.60;71.20;;;;;;4877484;29;20031;-80
2022/07/04 16:16:47;;;;;;;1.55;1.27;;;28.40;73.00;;;;;;4888879;29;20016;-79
2022/07/04 16:19:13;;;;;;;1.90;1.23;;;28.40;73.40;;;;;;4883857;29;20025;-80
2022/07/04 16:21:41;;;;;;;3.05;1.48;;;28.30;73.20;;;;;;4903065;29;20060;-79